CPX408 Details

Departure: Tulsa International Airport (KTUL)
Arrival: Chicago/Rockford International Airport (KRFD) at N/A
Route: TUL5 EOS J181 BAYLI J105 BDF
Notes:


Current Weather Information
KTUL 230753Z 18009KT 10SM CLR 11/03 A3000 RMK AO2 SLP155 T01060033
KRFD 230754Z 22008KT 10SM CLR 06/M01 A2983 RMK AO2 SLP106 T00561006